createdAt,value
2024-01-24T00:00:42.356Z,67.93
2024-01-24T00:03:09.830Z,67.92
2024-01-24T00:05:36.844Z,68.03
2024-01-24T00:08:04.078Z,68.06
2024-01-24T00:10:30.941Z,68.55
2024-01-24T00:12:58.000Z,68.74
2024-01-24T00:15:25.005Z,69.03
2024-01-24T00:17:52.068Z,69.30
2024-01-24T00:20:19.149Z,69.62
2024-01-24T00:22:46.047Z,69.87
2024-01-24T00:25:13.104Z,69.33
2024-01-24T00:27:40.271Z,68.84
2024-01-24T00:30:08.622Z,68.55
2024-01-24T00:32:35.594Z,68.62
2024-01-24T00:35:02.529Z,68.89
2024-01-24T00:37:29.398Z,69.46
2024-01-24T00:39:56.376Z,69.58
2024-01-24T00:42:23.291Z,69.56
2024-01-24T00:44:52.027Z,69.80
2024-01-24T00:47:20.211Z,69.73
2024-01-24T00:49:47.280Z,69.79
2024-01-24T00:52:14.879Z,70.05
2024-01-24T00:54:41.903Z,70.24
2024-01-24T00:57:08.916Z,69.88
2024-01-24T00:59:35.841Z,70.10
2024-01-24T01:02:03.770Z,70.09
2024-01-24T01:04:30.771Z,70.46
2024-01-24T01:06:57.664Z,70.46
2024-01-24T01:09:24.585Z,70.61
2024-01-24T01:11:51.528Z,70.12
2024-01-24T01:14:18.424Z,70.01
2024-01-24T01:16:45.322Z,70.39
2024-01-24T01:19:12.371Z,69.93
2024-01-24T01:21:41.496Z,70.12
2024-01-24T01:24:10.502Z,70.24
2024-01-24T01:26:37.605Z,70.26
2024-01-24T01:29:04.914Z,70.04
2024-01-24T01:31:31.796Z,69.70
2024-01-24T01:33:58.918Z,69.33
2024-01-24T01:36:26.031Z,69.75
2024-01-24T01:38:53.079Z,69.26
2024-01-24T01:41:20.149Z,68.92
2024-01-24T01:43:47.103Z,68.17
2024-01-24T01:46:22.830Z,67.73
2024-01-24T01:48:51.636Z,67.99
2024-01-24T01:51:20.758Z,68.05
2024-01-24T01:53:49.722Z,67.55
2024-01-24T01:56:21.431Z,66.98
2024-01-24T01:58:49.998Z,66.62
2024-01-24T02:01:17.936Z,66.01
2024-01-24T02:03:46.946Z,65.70
2024-01-24T02:06:14.403Z,64.97
2024-01-24T02:08:41.449Z,64.55
2024-01-24T02:11:08.417Z,63.68
2024-01-24T02:13:35.381Z,62.97
2024-01-24T02:16:04.737Z,62.58
2024-01-24T02:18:32.072Z,62.02
2024-01-24T02:20:59.245Z,61.47
2024-01-24T02:23:27.746Z,62.08
2024-01-24T02:25:55.079Z,62.14
2024-01-24T02:28:22.080Z,61.43
2024-01-24T02:30:49.233Z,61.58
2024-01-24T02:33:16.875Z,60.96
2024-01-24T02:35:43.972Z,61.40
2024-01-24T02:38:10.921Z,60.83
2024-01-24T02:40:37.901Z,60.49
2024-01-24T02:43:05.315Z,60.03
2024-01-24T02:45:33.028Z,60.00
2024-01-24T02:48:00.075Z,59.75
2024-01-24T02:50:27.131Z,60.47
2024-01-24T02:52:54.030Z,60.14
2024-01-24T02:55:20.894Z,60.49
2024-01-24T02:57:48.489Z,59.12
2024-01-24T03:00:16.962Z,59.89
2024-01-24T03:02:44.135Z,60.12
2024-01-24T03:05:11.115Z,59.95
2024-01-24T03:07:39.010Z,59.79
2024-01-24T03:10:07.201Z,59.70
2024-01-24T03:12:34.710Z,60.05
2024-01-24T03:15:01.665Z,59.69
2024-01-24T03:17:28.572Z,59.59
2024-01-24T03:19:56.150Z,59.80
2024-01-24T03:22:26.136Z,60.29
2024-01-24T03:24:53.730Z,60.03
2024-01-24T03:27:20.829Z,60.27
2024-01-24T03:29:47.775Z,60.16
2024-01-24T03:32:14.662Z,61.17
2024-01-24T03:34:41.563Z,60.48
2024-01-24T03:37:08.512Z,60.23
2024-01-24T03:39:37.219Z,59.83
2024-01-24T03:42:04.962Z,60.05
2024-01-24T03:44:32.004Z,59.97
2024-01-24T03:46:59.159Z,60.28
2024-01-24T03:49:26.210Z,60.08
2024-01-24T03:51:54.230Z,61.01
2024-01-24T03:54:21.280Z,60.83
2024-01-24T03:56:48.347Z,61.02
2024-01-24T03:59:15.552Z,60.87
2024-01-24T04:01:43.622Z,60.08
2024-01-24T04:04:10.725Z,59.89
2024-01-24T04:06:37.873Z,59.45
2024-01-24T04:09:04.970Z,60.41
2024-01-24T04:11:31.846Z,59.83
2024-01-24T04:13:58.997Z,60.20
2024-01-24T04:16:25.886Z,60.13
2024-01-24T04:18:53.661Z,60.41
2024-01-24T04:21:20.632Z,60.34
2024-01-24T04:23:47.764Z,60.65
2024-01-24T04:26:14.758Z,60.93
2024-01-24T04:28:41.675Z,60.62
2024-01-24T04:31:08.641Z,60.68
2024-01-24T04:33:36.032Z,60.74
2024-01-24T04:36:03.147Z,60.70
2024-01-24T04:38:30.044Z,61.23
2024-01-24T04:40:56.884Z,61.26
2024-01-24T04:43:23.776Z,61.66
2024-01-24T04:45:50.700Z,62.10
2024-01-24T04:48:17.811Z,62.53
2024-01-24T04:50:45.009Z,61.70
2024-01-24T04:53:11.966Z,61.85
2024-01-24T04:55:38.809Z,61.44
2024-01-24T04:58:05.811Z,61.34
2024-01-24T05:00:32.851Z,61.10
2024-01-24T05:02:59.840Z,61.96
2024-01-24T05:05:26.948Z,61.80
2024-01-24T05:07:53.809Z,60.88
2024-01-24T05:10:20.879Z,60.90
2024-01-24T05:12:47.868Z,60.54
2024-01-24T05:15:14.832Z,60.03
2024-01-24T05:17:41.972Z,60.18
2024-01-24T05:20:09.940Z,60.55
2024-01-24T05:22:36.939Z,60.42
2024-01-24T05:25:04.151Z,60.38
2024-01-24T05:27:31.176Z,60.78
2024-01-24T05:29:58.101Z,61.29
2024-01-24T05:32:25.011Z,61.71
2024-01-24T05:34:52.063Z,62.03
2024-01-24T05:37:18.953Z,62.58
2024-01-24T05:39:46.038Z,62.46
2024-01-24T05:42:13.018Z,62.82
2024-01-24T05:44:39.935Z,63.58
2024-01-24T05:47:06.996Z,63.01
2024-01-24T05:49:39.867Z,63.29
2024-01-24T05:52:07.433Z,63.21
2024-01-24T05:54:34.995Z,62.91
2024-01-24T05:57:01.925Z,62.67
2024-01-24T05:59:28.848Z,62.66
2024-01-24T06:01:56.400Z,63.73
2024-01-24T06:04:23.379Z,62.95
2024-01-24T06:06:50.431Z,62.62
2024-01-24T06:09:21.664Z,62.18
2024-01-24T06:11:49.936Z,62.22
2024-01-24T06:14:16.997Z,61.91
2024-01-24T06:16:43.986Z,61.80
2024-01-24T06:19:11.024Z,62.15
2024-01-24T06:21:38.160Z,62.01
2024-01-24T06:24:07.787Z,61.58
2024-01-24T06:26:34.814Z,62.48
2024-01-24T06:29:03.052Z,61.54
2024-01-24T06:31:29.984Z,62.12
2024-01-24T06:33:57.007Z,61.82
2024-01-24T06:36:23.986Z,61.13
2024-01-24T06:38:50.924Z,62.32
2024-01-24T06:41:17.848Z,61.51
2024-01-24T06:43:44.751Z,61.44
2024-01-24T06:46:12.503Z,61.86
2024-01-24T06:48:39.840Z,61.34
2024-01-24T06:51:07.370Z,61.80
2024-01-24T06:53:34.322Z,62.75
2024-01-24T06:56:01.271Z,61.80
2024-01-24T06:58:28.221Z,61.00
2024-01-24T07:00:57.185Z,61.77
2024-01-24T07:03:24.333Z,61.46
2024-01-24T07:05:52.648Z,61.32
2024-01-24T07:08:19.805Z,61.53
2024-01-24T07:10:46.700Z,62.97
2024-01-24T07:13:13.641Z,62.03
2024-01-24T07:15:40.988Z,62.06
2024-01-24T07:18:08.272Z,61.68
2024-01-24T07:20:35.214Z,61.99
2024-01-24T07:23:03.085Z,61.84
2024-01-24T07:25:30.276Z,62.39
2024-01-24T07:27:57.203Z,62.10
2024-01-24T07:30:24.420Z,61.86
2024-01-24T07:32:51.550Z,62.24
2024-01-24T07:35:18.530Z,62.39
2024-01-24T07:37:45.909Z,61.29
2024-01-24T07:40:15.462Z,61.21
2024-01-24T07:42:43.828Z,61.51
2024-01-24T07:45:11.000Z,61.40
2024-01-24T07:47:38.405Z,61.42
2024-01-24T07:50:07.999Z,60.70
2024-01-24T07:52:40.892Z,61.92
2024-01-24T07:55:11.810Z,62.19
2024-01-24T07:57:39.332Z,62.29
2024-01-24T08:00:07.423Z,61.21
2024-01-24T08:02:35.067Z,61.37
2024-01-24T08:05:02.293Z,61.03
2024-01-24T08:07:31.498Z,61.28
2024-01-24T08:09:58.591Z,60.94
2024-01-24T08:12:25.712Z,61.25
2024-01-24T08:14:52.741Z,61.43
2024-01-24T08:17:20.419Z,60.95
2024-01-24T08:19:47.397Z,61.53
2024-01-24T08:22:15.298Z,60.77
2024-01-24T08:24:42.493Z,60.58
2024-01-24T08:27:09.501Z,62.21
2024-01-24T08:29:37.946Z,62.15
2024-01-24T08:32:06.908Z,61.43
2024-01-24T08:34:36.959Z,61.17
2024-01-24T08:37:05.214Z,60.83
2024-01-24T08:39:33.486Z,61.22
2024-01-24T08:42:00.361Z,61.72
2024-01-24T08:44:28.279Z,61.18
2024-01-24T08:46:55.138Z,60.53
2024-01-24T08:49:22.262Z,61.77
2024-01-24T08:51:49.437Z,61.09
2024-01-24T08:54:17.327Z,60.59
2024-01-24T08:56:44.583Z,60.87
2024-01-24T08:59:11.521Z,61.66
2024-01-24T09:01:38.518Z,61.48
2024-01-24T09:04:06.368Z,60.75
2024-01-24T09:06:33.541Z,62.30
2024-01-24T09:09:00.822Z,61.98
2024-01-24T09:11:32.017Z,60.26
2024-01-24T09:14:05.118Z,60.82
2024-01-24T09:16:32.249Z,60.57
2024-01-24T09:18:59.521Z,60.62
2024-01-24T09:21:26.948Z,61.01
2024-01-24T09:23:53.934Z,60.64
2024-01-24T09:26:21.046Z,60.53
2024-01-24T09:28:48.009Z,60.00
2024-01-24T09:31:15.945Z,60.14
2024-01-24T09:33:43.100Z,59.28
2024-01-24T09:36:11.072Z,60.35
2024-01-24T09:38:38.000Z,59.08
2024-01-24T09:41:15.158Z,58.89
2024-01-24T09:43:42.641Z,58.94
2024-01-24T09:46:14.624Z,58.53
2024-01-24T09:48:44.440Z,58.57
2024-01-24T09:51:11.513Z,58.27
2024-01-24T09:53:40.889Z,57.91
2024-01-24T09:56:08.049Z,57.94
2024-01-24T09:58:35.043Z,57.37
2024-01-24T10:01:06.293Z,57.30
2024-01-24T10:03:37.653Z,57.45
2024-01-24T10:06:10.487Z,57.48
2024-01-24T10:08:37.469Z,57.58
2024-01-24T10:11:04.703Z,57.05
2024-01-24T10:13:32.481Z,57.77
2024-01-24T10:16:01.144Z,58.49
2024-01-24T10:18:28.343Z,57.14
2024-01-24T10:20:55.883Z,57.26
2024-01-24T10:23:23.098Z,57.59
2024-01-24T10:25:50.244Z,57.77
2024-01-24T10:28:18.336Z,57.01
2024-01-24T10:30:48.852Z,56.74
2024-01-24T10:33:19.315Z,56.31
2024-01-24T10:35:46.946Z,57.27
2024-01-24T10:38:19.356Z,56.17
2024-01-24T10:40:46.682Z,53.90
2024-01-24T10:43:15.337Z,55.06
2024-01-24T10:45:45.529Z,55.30
2024-01-24T10:48:13.051Z,55.16
2024-01-24T10:50:41.093Z,54.91
2024-01-24T10:53:10.948Z,55.88
2024-01-24T10:55:38.667Z,56.06
2024-01-24T10:58:12.254Z,56.47
2024-01-24T11:00:40.810Z,55.94
2024-01-24T11:03:09.036Z,55.91
2024-01-24T11:05:45.009Z,56.30
2024-01-24T11:08:43.676Z,55.80
2024-01-24T11:11:18.689Z,55.40
2024-01-24T11:13:47.287Z,55.34
2024-01-24T11:16:38.436Z,55.67
2024-01-24T11:19:23.464Z,55.30
2024-01-24T11:21:52.294Z,55.07
2024-01-24T11:24:41.297Z,55.68
2024-01-24T11:27:35.367Z,55.07
2024-01-24T11:30:24.496Z,55.74
2024-01-24T11:33:01.368Z,56.00
2024-01-24T11:35:42.615Z,55.23
2024-01-24T11:38:26.029Z,55.33
2024-01-24T11:41:02.453Z,52.76
2024-01-24T11:43:37.762Z,52.34
2024-01-24T11:46:09.358Z,51.14
2024-01-24T11:48:38.282Z,51.12
2024-01-24T11:51:12.292Z,51.77
2024-01-24T11:53:39.273Z,52.89
2024-01-24T11:56:09.059Z,54.33
2024-01-24T11:58:36.371Z,53.39
2024-01-24T12:01:04.924Z,50.91
2024-01-24T12:03:32.764Z,47.81
2024-01-24T12:06:00.780Z,47.01
2024-01-24T12:08:28.749Z,47.93
2024-01-24T12:10:55.772Z,48.43
2024-01-24T12:13:25.342Z,46.36
2024-01-24T12:15:54.690Z,47.52
2024-01-24T12:18:22.253Z,48.46
2024-01-24T12:20:54.393Z,49.04
2024-01-24T12:23:23.178Z,48.31
2024-01-24T12:25:51.081Z,47.62
2024-01-24T12:28:22.832Z,48.69
2024-01-24T12:30:52.702Z,50.68
2024-01-24T12:33:20.552Z,51.56
2024-01-24T12:35:48.966Z,53.81
2024-01-24T12:38:17.343Z,54.87
2024-01-24T12:40:53.466Z,56.41
2024-01-24T12:43:23.009Z,57.19
2024-01-24T12:45:50.705Z,57.14
2024-01-24T12:48:19.797Z,57.34
2024-01-24T12:50:50.505Z,60.24
2024-01-24T12:53:17.824Z,61.19
2024-01-24T12:55:44.991Z,62.24
2024-01-24T12:58:12.129Z,63.91
2024-01-24T13:00:39.430Z,64.91
2024-01-24T13:03:06.890Z,65.68
2024-01-24T13:05:42.372Z,65.23
2024-01-24T13:08:14.295Z,62.04
2024-01-24T13:10:46.478Z,60.85
2024-01-24T13:13:14.743Z,57.79
2024-01-24T13:15:42.480Z,56.28
2024-01-24T13:18:10.865Z,57.11
2024-01-24T13:20:37.825Z,59.52
2024-01-24T13:23:05.051Z,59.05
2024-01-24T13:25:32.094Z,59.04
2024-01-24T13:28:00.188Z,59.49
2024-01-24T13:30:28.018Z,60.57
2024-01-24T13:32:55.925Z,61.70
2024-01-24T13:35:22.982Z,63.60
2024-01-24T13:37:50.633Z,64.47
2024-01-24T13:40:18.490Z,65.77
2024-01-24T13:42:45.961Z,66.30
2024-01-24T13:45:13.085Z,66.93
2024-01-24T13:47:40.164Z,68.46
2024-01-24T13:50:07.876Z,69.78
2024-01-24T13:52:35.047Z,70.24
2024-01-24T13:55:02.474Z,71.01
2024-01-24T13:57:29.690Z,70.53
2024-01-24T13:59:56.831Z,70.28
2024-01-24T14:02:24.004Z,71.26
2024-01-24T14:04:51.454Z,71.68
2024-01-24T14:07:18.972Z,72.95
2024-01-24T14:09:46.232Z,73.83
2024-01-24T14:12:13.339Z,73.04
2024-01-24T14:14:40.275Z,73.41
2024-01-24T14:17:07.215Z,72.68
2024-01-24T14:19:34.550Z,74.44
2024-01-24T14:22:01.821Z,73.37
2024-01-24T14:24:29.290Z,72.54
2024-01-24T14:26:56.331Z,73.51
2024-01-24T14:29:24.427Z,73.03
2024-01-24T14:31:51.531Z,72.83
2024-01-24T14:34:18.893Z,72.83
2024-01-24T14:36:52.116Z,72.84
2024-01-24T14:39:22.951Z,72.81
2024-01-24T14:41:50.224Z,73.35
2024-01-24T14:44:18.363Z,73.89
2024-01-24T14:46:45.238Z,74.49
2024-01-24T14:49:12.495Z,75.24
2024-01-24T14:51:39.648Z,76.10
2024-01-24T14:54:06.692Z,75.57
2024-01-24T14:56:33.732Z,75.14
2024-01-24T14:59:00.742Z,74.80
2024-01-24T15:01:28.268Z,75.18
2024-01-24T15:03:56.461Z,73.62
2024-01-24T15:06:23.508Z,73.84
2024-01-24T15:08:50.603Z,74.76
2024-01-24T15:11:18.122Z,73.88
2024-01-24T15:13:45.086Z,73.25
2024-01-24T15:16:12.148Z,73.16
2024-01-24T15:18:39.709Z,73.35
2024-01-24T15:21:09.120Z,72.84
2024-01-24T15:23:40.275Z,72.38
2024-01-24T15:26:08.688Z,73.37
2024-01-24T15:28:39.260Z,73.49
2024-01-24T15:31:07.520Z,74.08
2024-01-24T15:33:35.328Z,72.31
2024-01-24T15:36:02.543Z,72.34
2024-01-24T15:38:29.534Z,71.26
2024-01-24T15:40:57.234Z,70.97
2024-01-24T15:43:24.319Z,70.49
2024-01-24T15:45:51.638Z,70.49
2024-01-24T15:48:19.077Z,71.02
2024-01-24T15:50:46.113Z,69.84
2024-01-24T15:53:13.749Z,69.82
2024-01-24T15:55:40.634Z,69.79
2024-01-24T15:58:07.699Z,70.56
2024-01-24T16:00:35.166Z,69.37
2024-01-24T16:03:04.572Z,69.96
2024-01-24T16:05:43.064Z,69.49
2024-01-24T16:08:11.920Z,69.53
2024-01-24T16:10:40.050Z,68.48
2024-01-24T16:13:08.176Z,68.63
2024-01-24T16:15:35.693Z,69.16
2024-01-24T16:18:04.769Z,68.84
2024-01-24T16:20:31.683Z,68.92
2024-01-24T16:22:58.607Z,67.99
2024-01-24T16:25:26.485Z,67.91
2024-01-24T16:27:55.036Z,68.14
2024-01-24T16:30:26.532Z,68.06
2024-01-24T16:32:56.970Z,66.92
2024-01-24T16:35:24.905Z,66.47
2024-01-24T16:37:52.969Z,66.11
2024-01-24T16:40:20.014Z,66.32
2024-01-24T16:42:47.246Z,65.54
2024-01-24T16:45:15.737Z,66.26
2024-01-24T16:47:44.291Z,65.81
2024-01-24T16:50:12.097Z,66.16
2024-01-24T16:52:39.383Z,65.46
2024-01-24T16:55:07.183Z,66.25
2024-01-24T16:57:34.986Z,65.51
2024-01-24T17:00:02.927Z,65.21
2024-01-24T17:02:38.100Z,65.14
2024-01-24T17:05:11.419Z,65.40
2024-01-24T17:07:38.466Z,65.61
2024-01-24T17:10:06.815Z,66.53
2024-01-24T17:12:34.230Z,66.04
2024-01-24T17:15:01.506Z,67.31
2024-01-24T17:17:28.533Z,66.67
2024-01-24T17:19:55.713Z,66.38
2024-01-24T17:22:23.294Z,67.02
2024-01-24T17:24:50.685Z,66.33
2024-01-24T17:27:18.203Z,66.31
2024-01-24T17:29:46.664Z,66.28
2024-01-24T17:32:13.744Z,66.51
2024-01-24T17:34:43.276Z,65.97
2024-01-24T17:37:11.211Z,65.98
2024-01-24T17:39:38.421Z,65.25
2024-01-24T17:42:05.766Z,65.96
2024-01-24T17:44:34.184Z,65.48
2024-01-24T17:47:01.285Z,65.76
2024-01-24T17:49:28.473Z,65.51
2024-01-24T17:51:57.860Z,65.42
2024-01-24T17:54:25.376Z,64.52
2024-01-24T17:56:52.802Z,64.47
2024-01-24T17:59:20.137Z,64.43
2024-01-24T18:01:47.694Z,63.55
2024-01-24T18:04:15.013Z,63.82
2024-01-24T18:06:42.509Z,64.78
2024-01-24T18:09:09.629Z,64.60
2024-01-24T18:11:37.486Z,63.79
2024-01-24T18:14:04.590Z,64.08
2024-01-24T18:16:31.813Z,63.53
2024-01-24T18:18:58.987Z,63.42
2024-01-24T18:21:29.825Z,62.78
2024-01-24T18:23:56.912Z,63.56
2024-01-24T18:26:23.842Z,63.34
2024-01-24T18:28:51.648Z,63.90
2024-01-24T18:31:19.003Z,62.74
2024-01-24T18:33:46.254Z,62.78
2024-01-24T18:36:13.581Z,62.52
2024-01-24T18:38:41.441Z,62.93
2024-01-24T18:41:08.553Z,62.42
2024-01-24T18:43:35.421Z,62.20
2024-01-24T18:46:02.998Z,62.39
2024-01-24T18:48:30.593Z,62.88
2024-01-24T18:50:57.755Z,61.80
2024-01-24T18:53:24.751Z,61.72
2024-01-24T18:55:52.739Z,61.96
2024-01-24T18:58:21.347Z,61.34
2024-01-24T19:00:48.844Z,61.77
2024-01-24T19:03:16.237Z,61.54
2024-01-24T19:05:43.474Z,61.69
2024-01-24T19:08:11.962Z,62.01
2024-01-24T19:10:39.211Z,62.02
2024-01-24T19:13:06.392Z,61.70
2024-01-24T19:15:33.555Z,62.45
2024-01-24T19:18:07.582Z,62.01
2024-01-24T19:20:40.811Z,62.64
2024-01-24T19:23:07.762Z,62.78
2024-01-24T19:25:34.675Z,62.62
2024-01-24T19:28:01.704Z,62.98
2024-01-24T19:30:29.076Z,62.85
2024-01-24T19:32:56.394Z,63.11
2024-01-24T19:35:23.485Z,62.83
2024-01-24T19:37:50.475Z,63.09
2024-01-24T19:40:17.530Z,62.98
2024-01-24T19:42:44.682Z,62.37
2024-01-24T19:45:13.124Z,62.44
2024-01-24T19:47:41.016Z,62.30
2024-01-24T19:50:11.185Z,62.27
2024-01-24T19:52:39.727Z,62.55
2024-01-24T19:55:08.696Z,62.32
2024-01-24T19:57:36.358Z,61.86
2024-01-24T20:00:04.874Z,61.57
2024-01-24T20:02:33.315Z,62.35
2024-01-24T20:05:01.297Z,62.12
2024-01-24T20:07:28.274Z,60.91
2024-01-24T20:09:55.314Z,61.50
2024-01-24T20:12:22.889Z,61.40
2024-01-24T20:14:50.681Z,61.08
2024-01-24T20:17:18.569Z,61.81
2024-01-24T20:19:50.088Z,61.47
2024-01-24T20:22:18.051Z,61.34
2024-01-24T20:24:45.641Z,60.93
2024-01-24T20:27:12.759Z,60.42
2024-01-24T20:29:39.666Z,60.98
2024-01-24T20:32:06.992Z,61.24
2024-01-24T20:34:34.110Z,60.69
2024-01-24T20:37:02.768Z,60.99
2024-01-24T20:39:30.038Z,61.33
2024-01-24T20:41:57.033Z,60.80
2024-01-24T20:44:23.932Z,61.22
2024-01-24T20:46:50.847Z,60.67
2024-01-24T20:49:17.970Z,60.87
2024-01-24T20:51:47.949Z,60.13
2024-01-24T20:54:15.177Z,60.72
2024-01-24T20:56:42.178Z,60.68
2024-01-24T20:59:09.595Z,60.95
2024-01-24T21:01:37.364Z,60.67
2024-01-24T21:04:04.882Z,60.35
2024-01-24T21:06:32.518Z,60.40
2024-01-24T21:09:00.067Z,60.42
2024-01-24T21:11:27.002Z,60.43
2024-01-24T21:13:53.957Z,60.02
2024-01-24T21:16:20.894Z,60.60
2024-01-24T21:18:48.034Z,60.12
2024-01-24T21:21:15.040Z,60.09
2024-01-24T21:23:41.950Z,59.49
2024-01-24T21:26:09.071Z,59.46
2024-01-24T21:28:35.927Z,59.59
2024-01-24T21:31:02.945Z,59.57
2024-01-24T21:33:32.689Z,60.04
2024-01-24T21:36:00.462Z,59.72
2024-01-24T21:38:27.557Z,59.71
2024-01-24T21:40:54.497Z,59.42
2024-01-24T21:43:21.503Z,59.83
2024-01-24T21:45:48.926Z,60.36
2024-01-24T21:48:16.720Z,59.81
2024-01-24T21:50:44.716Z,59.69
2024-01-24T21:53:11.671Z,59.29
2024-01-24T21:55:38.622Z,59.63
2024-01-24T21:58:05.761Z,59.33
2024-01-24T22:00:34.089Z,59.41
2024-01-24T22:03:01.208Z,59.73
2024-01-24T22:05:28.127Z,59.93
2024-01-24T22:07:55.124Z,59.89
2024-01-24T22:10:22.055Z,59.63
2024-01-24T22:12:50.400Z,59.22
2024-01-24T22:15:17.840Z,59.65
2024-01-24T22:17:44.854Z,59.68
2024-01-24T22:20:12.251Z,59.89
2024-01-24T22:22:39.362Z,59.99
2024-01-24T22:25:08.630Z,59.84
2024-01-24T22:27:35.618Z,59.88
2024-01-24T22:30:05.777Z,60.06
2024-01-24T22:32:33.943Z,60.47
2024-01-24T22:35:06.269Z,60.42
2024-01-24T22:37:33.648Z,60.19
2024-01-24T22:40:00.842Z,60.28
2024-01-24T22:42:27.855Z,60.25
2024-01-24T22:44:54.787Z,60.25
2024-01-24T22:47:22.072Z,60.44
2024-01-24T22:49:49.255Z,60.37
2024-01-24T22:52:17.020Z,60.25
2024-01-24T22:54:44.035Z,60.28
2024-01-24T22:57:11.867Z,60.39
2024-01-24T22:59:38.866Z,60.59
2024-01-24T23:02:06.551Z,61.24
2024-01-24T23:04:33.712Z,61.05
2024-01-24T23:07:00.811Z,60.44
2024-01-24T23:09:27.779Z,60.13
2024-01-24T23:11:54.664Z,60.69
2024-01-24T23:14:21.650Z,60.57
2024-01-24T23:16:48.541Z,60.65
2024-01-24T23:19:15.730Z,60.68
2024-01-24T23:21:42.918Z,60.23
2024-01-24T23:24:09.894Z,60.01
2024-01-24T23:26:37.002Z,60.38
2024-01-24T23:29:03.995Z,59.82
2024-01-24T23:31:30.861Z,60.09
2024-01-24T23:33:57.951Z,59.92
2024-01-24T23:36:25.666Z,59.74
2024-01-24T23:38:53.769Z,60.03
2024-01-24T23:41:21.586Z,60.46
2024-01-24T23:43:48.502Z,60.70
2024-01-24T23:46:15.660Z,59.90
2024-01-24T23:48:43.059Z,59.68
2024-01-24T23:51:10.495Z,59.67
2024-01-24T23:53:37.546Z,59.67
2024-01-24T23:56:04.953Z,60.04
2024-01-24T23:58:32.186Z,60.16
